createdAt,value
2022-12-07T00:00:58.323Z,29.10
2022-12-07T00:01:58.386Z,32.90
2022-12-07T00:02:58.330Z,35.10
2022-12-07T00:03:58.277Z,33.10
2022-12-07T00:04:58.273Z,32.20
2022-12-07T00:05:58.278Z,31.40
2022-12-07T00:06:58.251Z,31.40
2022-12-07T00:07:58.306Z,30.90
2022-12-07T00:08:58.225Z,31.20
2022-12-07T00:09:58.309Z,30.20
2022-12-07T00:10:58.203Z,28.90
2022-12-07T00:11:58.405Z,32.60
2022-12-07T00:12:58.180Z,28.20
2022-12-07T00:13:58.175Z,26.60
2022-12-07T00:14:58.162Z,27.60
2022-12-07T00:15:58.153Z,26.10
2022-12-07T00:16:58.250Z,28.20
2022-12-07T00:17:58.171Z,25.90
2022-12-07T00:18:58.115Z,25.80
2022-12-07T00:19:58.269Z,28.70
2022-12-07T00:20:58.088Z,28.30
2022-12-07T00:21:58.102Z,27.20
2022-12-07T00:22:58.068Z,29.10
2022-12-07T00:23:58.092Z,29.10
2022-12-07T00:24:58.057Z,25.90
2022-12-07T00:25:58.072Z,28.00
2022-12-07T00:26:58.038Z,28.10
2022-12-07T00:27:58.028Z,26.90
2022-12-07T00:28:58.050Z,28.70
2022-12-07T00:29:58.073Z,28.60
2022-12-07T00:30:58.013Z,25.10
2022-12-07T00:31:58.039Z,30.10
2022-12-07T00:32:57.968Z,27.20
2022-12-07T00:33:57.953Z,24.40
2022-12-07T00:34:57.940Z,26.70
2022-12-07T00:35:57.954Z,28.90
2022-12-07T00:36:57.917Z,25.80
2022-12-07T00:37:57.909Z,25.00
2022-12-07T00:38:57.894Z,27.90
2022-12-07T00:39:58.013Z,26.60
2022-12-07T00:40:57.889Z,25.40
2022-12-07T00:41:57.874Z,26.50
2022-12-07T00:42:57.882Z,26.80
2022-12-07T00:43:57.843Z,27.20
2022-12-07T00:44:57.827Z,27.90
2022-12-07T00:45:57.926Z,25.40
2022-12-07T00:46:57.836Z,27.10
2022-12-07T00:47:57.794Z,26.80
2022-12-07T00:48:57.780Z,27.20
2022-12-07T00:49:57.778Z,30.10
2022-12-07T00:50:57.794Z,26.30
2022-12-07T00:51:57.750Z,26.30
2022-12-07T00:52:57.804Z,32.20
2022-12-07T00:53:57.730Z,29.20
2022-12-07T00:54:57.713Z,27.10
2022-12-07T00:55:57.727Z,28.20
2022-12-07T00:56:57.698Z,26.20
2022-12-07T00:57:57.691Z,28.70
2022-12-07T00:58:57.695Z,30.30
2022-12-07T00:59:57.747Z,30.40
2022-12-07T01:00:57.680Z,27.10
2022-12-07T01:01:57.723Z,28.60
2022-12-07T01:02:57.666Z,27.40
2022-12-07T01:03:57.622Z,29.20
2022-12-07T01:04:57.633Z,27.90
2022-12-07T01:05:57.603Z,30.40
2022-12-07T01:06:57.581Z,26.70
2022-12-07T01:07:57.603Z,27.80
2022-12-07T01:08:57.698Z,29.00
2022-12-07T01:09:57.558Z,28.40
2022-12-07T01:10:57.568Z,29.50
2022-12-07T01:11:57.610Z,29.90
2022-12-07T01:12:57.520Z,30.70
2022-12-07T01:13:57.506Z,32.30
2022-12-07T01:14:57.515Z,30.00
2022-12-07T01:15:57.495Z,29.80
2022-12-07T01:16:57.866Z,28.40
2022-12-07T01:17:57.474Z,30.60
2022-12-07T01:18:57.455Z,35.00
2022-12-07T01:19:57.459Z,32.80
2022-12-07T01:20:57.443Z,30.00
2022-12-07T01:21:57.426Z,31.90
2022-12-07T01:22:57.444Z,28.20
2022-12-07T01:23:57.397Z,29.70
2022-12-07T01:24:57.386Z,32.50
2022-12-07T01:25:57.373Z,30.50
2022-12-07T01:26:57.412Z,29.70
2022-12-07T01:27:57.352Z,30.20
2022-12-07T01:28:57.415Z,30.80
2022-12-07T01:29:57.342Z,31.10
2022-12-07T01:30:57.402Z,34.20
2022-12-07T01:31:57.305Z,31.30
2022-12-07T01:32:57.300Z,32.80
2022-12-07T01:33:57.298Z,30.20
2022-12-07T01:34:57.310Z,33.80
2022-12-07T01:35:57.284Z,33.30
2022-12-07T01:36:57.265Z,31.60
2022-12-07T01:37:57.297Z,33.00
2022-12-07T01:38:57.233Z,33.90
2022-12-07T01:39:57.217Z,31.90
2022-12-07T01:40:57.242Z,32.60
2022-12-07T01:41:57.207Z,31.60
2022-12-07T01:42:57.205Z,32.70
2022-12-07T01:43:57.171Z,34.90
2022-12-07T01:44:57.205Z,34.80
2022-12-07T01:45:57.254Z,31.20
2022-12-07T01:46:57.186Z,33.30
2022-12-07T01:47:57.128Z,35.10
2022-12-07T01:48:57.126Z,32.80
2022-12-07T01:49:57.108Z,31.60
2022-12-07T01:50:57.120Z,36.10
2022-12-07T01:51:57.088Z,35.50
2022-12-07T01:52:57.100Z,35.60
2022-12-07T01:53:57.064Z,35.60
2022-12-07T01:54:57.104Z,37.70
2022-12-07T01:55:57.056Z,35.80
2022-12-07T01:56:57.034Z,34.20
2022-12-07T01:57:57.055Z,32.80
2022-12-07T01:58:57.027Z,34.20
2022-12-07T01:59:57.007Z,35.30
2022-12-07T02:00:56.991Z,33.20
2022-12-07T02:01:57.096Z,34.50
2022-12-07T02:02:57.069Z,33.30
2022-12-07T02:03:56.988Z,36.30
2022-12-07T02:04:56.945Z,37.00
2022-12-07T02:05:56.941Z,33.40
2022-12-07T02:06:56.933Z,36.10
2022-12-07T02:07:57.016Z,37.40
2022-12-07T02:08:56.896Z,37.20
2022-12-07T02:09:56.914Z,35.40
2022-12-07T02:10:56.873Z,33.80
2022-12-07T02:11:56.869Z,37.70
2022-12-07T02:12:56.859Z,37.50
2022-12-07T02:13:56.843Z,35.00
2022-12-07T02:14:56.830Z,39.00
2022-12-07T02:15:56.919Z,34.30
2022-12-07T02:16:56.803Z,36.00
2022-12-07T02:17:56.808Z,35.70
2022-12-07T02:18:56.851Z,36.30
2022-12-07T02:19:56.776Z,36.70
2022-12-07T02:20:56.759Z,38.30
2022-12-07T02:21:56.785Z,34.00
2022-12-07T02:22:56.735Z,37.20
2022-12-07T02:23:56.732Z,36.60
2022-12-07T02:24:56.714Z,35.20
2022-12-07T02:25:56.730Z,35.50
2022-12-07T02:26:56.733Z,35.60
2022-12-07T02:27:56.710Z,38.40
2022-12-07T02:28:56.682Z,38.20
2022-12-07T02:29:56.667Z,35.40
2022-12-07T02:30:56.702Z,35.90
2022-12-07T02:31:56.645Z,36.00
2022-12-07T02:32:56.667Z,36.70
2022-12-07T02:33:56.630Z,35.00
2022-12-07T02:34:56.607Z,35.00
2022-12-07T02:35:56.610Z,38.50
2022-12-07T02:36:56.595Z,36.30
2022-12-07T02:37:56.608Z,33.80
2022-12-07T02:38:56.587Z,35.90
2022-12-07T02:39:56.586Z,37.50
2022-12-07T02:40:56.596Z,37.10
2022-12-07T02:41:56.535Z,36.80
2022-12-07T02:42:56.530Z,33.70
2022-12-07T02:43:56.567Z,34.10
2022-12-07T02:44:56.498Z,34.00
2022-12-07T02:45:56.592Z,35.20
2022-12-07T02:46:56.475Z,33.50
2022-12-07T02:47:56.481Z,35.90
2022-12-07T02:48:56.502Z,35.30
2022-12-07T02:49:56.478Z,35.50
2022-12-07T02:50:56.431Z,35.20
2022-12-07T02:51:56.423Z,33.00
2022-12-07T02:52:56.416Z,31.70
2022-12-07T02:53:56.403Z,35.00
2022-12-07T02:54:56.389Z,33.20
2022-12-07T02:55:56.431Z,34.80
2022-12-07T02:56:56.378Z,32.70
2022-12-07T02:57:56.361Z,34.80
2022-12-07T02:58:56.351Z,37.10
2022-12-07T02:59:56.404Z,32.00
2022-12-07T03:00:56.336Z,34.80
2022-12-07T03:01:56.405Z,38.60
2022-12-07T03:02:56.366Z,33.60
2022-12-07T03:03:56.301Z,34.80
2022-12-07T03:04:56.290Z,33.00
2022-12-07T03:05:56.295Z,37.00
2022-12-07T03:06:56.257Z,36.90
2022-12-07T03:07:56.306Z,34.90
2022-12-07T03:08:56.233Z,36.80
2022-12-07T03:09:56.220Z,35.90
2022-12-07T03:10:56.215Z,33.40
2022-12-07T03:11:56.198Z,36.70
2022-12-07T03:12:56.229Z,35.40
2022-12-07T03:13:56.179Z,31.90
2022-12-07T03:14:56.173Z,33.00
2022-12-07T03:15:56.223Z,32.00
2022-12-07T03:16:56.148Z,34.80
2022-12-07T03:17:56.173Z,34.50
2022-12-07T03:18:56.181Z,36.20
2022-12-07T03:19:56.109Z,33.90
2022-12-07T03:20:56.097Z,31.40
2022-12-07T03:21:56.097Z,34.50
2022-12-07T03:22:56.098Z,33.80
2022-12-07T03:23:56.071Z,36.00
2022-12-07T03:24:56.078Z,32.20
2022-12-07T03:26:00.450Z,35.40
2022-12-07T03:26:56.032Z,30.40
2022-12-07T03:27:56.034Z,34.50
2022-12-07T03:28:56.025Z,31.00
2022-12-07T03:29:56.034Z,31.60
2022-12-07T03:30:56.125Z,29.00
2022-12-07T03:31:55.991Z,33.30
2022-12-07T03:32:55.965Z,33.40
2022-12-07T03:33:55.957Z,30.10
2022-12-07T03:34:55.940Z,36.00
2022-12-07T03:35:55.959Z,30.50
2022-12-07T03:36:55.945Z,35.10
2022-12-07T03:37:55.915Z,30.60
2022-12-07T03:38:55.909Z,28.90
2022-12-07T03:39:55.901Z,29.40
2022-12-07T03:40:55.883Z,28.90
2022-12-07T03:41:55.912Z,33.30
2022-12-07T03:42:55.861Z,27.80
2022-12-07T03:43:55.858Z,29.20
2022-12-07T03:44:55.838Z,29.30
2022-12-07T03:45:55.836Z,29.00
2022-12-07T03:46:55.880Z,31.80
2022-12-07T03:47:55.846Z,26.80
2022-12-07T03:48:55.804Z,31.70
2022-12-07T03:49:55.802Z,27.40
2022-12-07T03:50:55.777Z,29.80
2022-12-07T03:51:55.767Z,25.10
2022-12-07T03:52:55.818Z,32.00
2022-12-07T03:53:55.837Z,31.00
2022-12-07T03:54:55.722Z,28.10
2022-12-07T03:55:55.724Z,27.20
2022-12-07T03:56:55.700Z,28.20
2022-12-07T03:57:55.701Z,27.80
2022-12-07T03:58:55.700Z,25.60
2022-12-07T03:59:55.677Z,26.60
2022-12-07T04:00:55.660Z,24.00
2022-12-07T04:01:55.817Z,25.60
2022-12-07T04:02:55.697Z,25.90
2022-12-07T04:03:55.652Z,24.20
2022-12-07T04:04:55.619Z,25.30
2022-12-07T04:05:55.607Z,26.90
2022-12-07T04:06:55.590Z,22.60
2022-12-07T04:07:55.644Z,26.80
2022-12-07T04:08:55.604Z,24.30
2022-12-07T04:09:55.556Z,25.20
2022-12-07T04:10:55.562Z,24.60
2022-12-07T04:11:55.540Z,26.30
2022-12-07T04:12:55.528Z,22.30
2022-12-07T04:13:55.511Z,23.60
2022-12-07T04:14:55.529Z,25.60
2022-12-07T04:15:55.600Z,23.40
2022-12-07T04:16:55.484Z,23.10
2022-12-07T04:17:55.466Z,22.20
2022-12-07T04:18:55.464Z,25.50
2022-12-07T04:19:55.476Z,23.00
2022-12-07T04:20:55.440Z,23.20
2022-12-07T04:21:55.424Z,24.50
2022-12-07T04:22:55.416Z,23.00
2022-12-07T04:23:55.400Z,23.30
2022-12-07T04:24:55.393Z,25.00
2022-12-07T04:25:55.404Z,20.30
2022-12-07T04:26:55.372Z,25.30
2022-12-07T04:27:55.356Z,22.50
2022-12-07T04:28:55.349Z,23.40
2022-12-07T04:29:55.340Z,22.50
2022-12-07T04:30:55.529Z,22.10
2022-12-07T04:31:55.363Z,24.10
2022-12-07T04:32:55.304Z,25.20
2022-12-07T04:33:55.291Z,22.70
2022-12-07T04:34:55.926Z,26.00
2022-12-07T04:35:55.269Z,21.70
2022-12-07T04:36:55.293Z,22.10
2022-12-07T04:37:55.244Z,22.80
2022-12-07T04:38:55.251Z,20.90
2022-12-07T04:39:55.221Z,22.50
2022-12-07T04:40:55.215Z,22.70
2022-12-07T04:41:55.208Z,21.20
2022-12-07T04:42:55.215Z,22.10
2022-12-07T04:43:55.179Z,23.00
2022-12-07T04:44:55.173Z,28.20
2022-12-07T04:45:55.157Z,22.00
2022-12-07T04:46:55.243Z,23.00
2022-12-07T04:47:55.152Z,19.50
2022-12-07T04:48:55.129Z,24.40
2022-12-07T04:49:55.112Z,23.90
2022-12-07T04:50:55.105Z,18.70
2022-12-07T04:51:55.089Z,23.60
2022-12-07T04:52:55.085Z,19.90
2022-12-07T04:53:55.104Z,20.70
2022-12-07T04:54:55.060Z,20.10
2022-12-07T04:55:55.047Z,22.20
2022-12-07T04:56:55.036Z,21.90
2022-12-07T04:57:55.025Z,24.40
2022-12-07T04:58:55.025Z,19.00
2022-12-07T04:59:55.028Z,19.30
2022-12-07T05:00:55.045Z,23.20
2022-12-07T05:01:55.026Z,19.20
2022-12-07T05:02:54.975Z,19.80
2022-12-07T05:03:54.961Z,22.60
2022-12-07T05:04:54.954Z,19.30
2022-12-07T05:05:54.971Z,20.60
2022-12-07T05:06:54.932Z,19.10
2022-12-07T05:07:55.004Z,22.10
2022-12-07T05:08:54.907Z,22.90
2022-12-07T05:09:54.902Z,19.20
2022-12-07T05:10:54.886Z,22.10
2022-12-07T05:11:54.900Z,21.00
2022-12-07T05:12:54.863Z,22.00
2022-12-07T05:13:54.855Z,19.90
2022-12-07T05:14:54.859Z,20.60
2022-12-07T05:15:54.913Z,22.30
2022-12-07T05:16:54.852Z,26.40
2022-12-07T05:17:54.811Z,18.50
2022-12-07T05:18:54.794Z,18.20
2022-12-07T05:19:54.791Z,19.90
2022-12-07T05:20:54.770Z,19.80
2022-12-07T05:21:54.783Z,20.60
2022-12-07T05:22:54.772Z,21.50
2022-12-07T05:23:54.744Z,20.40
2022-12-07T05:24:54.731Z,18.20
2022-12-07T05:25:54.723Z,20.40
2022-12-07T05:26:54.705Z,18.10
2022-12-07T05:27:54.702Z,19.00
2022-12-07T05:28:55.158Z,17.50
2022-12-07T05:29:54.680Z,19.40
2022-12-07T05:30:59.690Z,23.70
2022-12-07T05:31:54.779Z,21.80
2022-12-07T05:32:54.642Z,19.40
2022-12-07T05:33:54.635Z,18.70
2022-12-07T05:34:54.639Z,17.80
2022-12-07T05:35:54.613Z,18.60
2022-12-07T05:36:54.605Z,17.10
2022-12-07T05:37:54.592Z,20.50
2022-12-07T05:38:54.573Z,17.20
2022-12-07T05:39:54.572Z,22.90
2022-12-07T05:40:54.576Z,15.00
2022-12-07T05:41:54.545Z,17.50
2022-12-07T05:42:54.529Z,17.40
2022-12-07T05:43:54.527Z,18.20
2022-12-07T05:44:54.507Z,13.90
2022-12-07T05:45:54.611Z,16.90
2022-12-07T05:46:54.487Z,17.70
2022-12-07T05:47:54.485Z,17.40
2022-12-07T05:48:54.470Z,17.50
2022-12-07T05:49:54.474Z,16.80
2022-12-07T05:50:54.442Z,15.10
2022-12-07T05:51:54.468Z,20.00
2022-12-07T05:52:54.434Z,21.60
2022-12-07T05:53:54.418Z,18.00
2022-12-07T05:54:54.397Z,16.00
2022-12-07T05:55:54.397Z,17.90
2022-12-07T05:56:54.412Z,20.90
2022-12-07T05:57:54.373Z,17.70
2022-12-07T05:58:54.355Z,17.30
2022-12-07T05:59:54.352Z,16.70
2022-12-07T06:00:54.332Z,14.50
2022-12-07T06:01:54.448Z,14.40
2022-12-07T06:02:54.475Z,20.80
2022-12-07T06:03:54.306Z,16.90
2022-12-07T06:04:54.293Z,15.80
2022-12-07T06:05:54.347Z,19.90
2022-12-07T06:06:54.271Z,18.10
2022-12-07T06:07:54.322Z,16.60
2022-12-07T06:08:54.250Z,18.40
2022-12-07T06:09:54.232Z,18.70
2022-12-07T06:10:54.229Z,16.60
2022-12-07T06:11:54.211Z,19.30
2022-12-07T06:12:54.240Z,22.00
2022-12-07T06:13:54.193Z,20.30
2022-12-07T06:14:54.189Z,21.60
2022-12-07T06:15:54.168Z,19.30
2022-12-07T06:16:54.206Z,19.40
2022-12-07T06:17:54.165Z,19.50
2022-12-07T06:18:54.150Z,20.60
2022-12-07T06:19:54.141Z,20.10
2022-12-07T06:20:54.160Z,20.40
2022-12-07T06:21:54.101Z,17.50
2022-12-07T06:22:54.117Z,16.80
2022-12-07T06:23:54.083Z,19.00
2022-12-07T06:24:54.079Z,22.90
2022-12-07T06:25:54.059Z,19.50
2022-12-07T06:26:54.055Z,22.20
2022-12-07T06:27:54.086Z,15.00
2022-12-07T06:28:54.027Z,19.60
2022-12-07T06:29:54.120Z,26.20
2022-12-07T06:30:54.005Z,18.00
2022-12-07T06:31:54.026Z,16.70
2022-12-07T06:32:54.009Z,20.90
2022-12-07T06:33:53.970Z,17.50
2022-12-07T06:34:53.963Z,20.20
2022-12-07T06:35:53.949Z,17.20
2022-12-07T06:36:53.941Z,19.20
2022-12-07T06:37:54.002Z,19.30
2022-12-07T06:38:53.936Z,17.10
2022-12-07T06:39:53.904Z,20.50
2022-12-07T06:40:53.901Z,17.30
2022-12-07T06:41:53.881Z,16.60
2022-12-07T06:42:53.894Z,17.10
2022-12-07T06:43:56.272Z,20.10
2022-12-07T06:44:53.851Z,16.60
2022-12-07T06:45:53.882Z,16.20
2022-12-07T06:47:06.717Z,17.00
2022-12-07T06:47:53.844Z,16.10
2022-12-07T06:48:53.807Z,13.10
2022-12-07T06:49:53.794Z,16.00
2022-12-07T06:50:55.325Z,14.30
2022-12-07T06:51:53.774Z,16.30
2022-12-07T06:52:53.783Z,16.10
2022-12-07T06:53:53.767Z,16.30
2022-12-07T06:54:53.745Z,17.70
2022-12-07T06:55:53.728Z,18.50
2022-12-07T06:56:53.722Z,15.40
2022-12-07T06:57:53.725Z,17.50
2022-12-07T06:58:53.697Z,17.70
2022-12-07T06:59:53.686Z,16.70
2022-12-07T07:00:53.729Z,15.90
2022-12-07T07:01:53.735Z,14.40
2022-12-07T07:02:53.730Z,15.90
2022-12-07T07:03:53.648Z,15.50
2022-12-07T07:04:53.642Z,19.90
2022-12-07T07:05:53.620Z,16.80
2022-12-07T07:06:59.622Z,15.10
2022-12-07T07:08:53.671Z,21.90
2022-12-07T07:09:53.574Z,21.70
2022-12-07T07:10:53.651Z,20.10
2022-12-07T07:11:53.588Z,20.60
2022-12-07T07:12:57.342Z,20.80
2022-12-07T07:13:53.530Z,22.20
2022-12-07T07:14:53.515Z,16.60
2022-12-07T07:15:53.511Z,17.00
2022-12-07T07:16:53.553Z,17.70
2022-12-07T07:17:53.514Z,14.90
2022-12-07T07:18:53.484Z,14.30
2022-12-07T07:19:53.471Z,14.90
2022-12-07T07:20:53.452Z,15.90
2022-12-07T07:21:53.511Z,16.90
2022-12-07T07:22:53.454Z,17.20
2022-12-07T07:23:53.427Z,14.70
2022-12-07T07:24:53.411Z,17.40
2022-12-07T07:25:53.413Z,17.80
2022-12-07T07:26:53.390Z,17.30
2022-12-07T07:27:53.403Z,12.70
2022-12-07T07:28:53.369Z,18.10
2022-12-07T07:29:53.357Z,17.40
2022-12-07T07:30:53.482Z,16.90
2022-12-07T07:31:53.347Z,16.10
2022-12-07T07:32:53.345Z,15.90
2022-12-07T07:33:53.349Z,14.40
2022-12-07T07:34:53.305Z,13.80
2022-12-07T07:35:53.287Z,15.20
2022-12-07T07:36:53.286Z,14.40
2022-12-07T07:37:53.295Z,14.40
2022-12-07T07:38:53.263Z,14.00
2022-12-07T07:39:53.244Z,14.30
2022-12-07T07:40:53.273Z,16.50
2022-12-07T07:41:53.220Z,16.80
2022-12-07T07:42:53.282Z,15.50
2022-12-07T07:43:53.199Z,17.50
2022-12-07T07:44:53.190Z,16.60
2022-12-07T07:45:53.199Z,12.70
2022-12-07T07:46:53.223Z,11.90
2022-12-07T07:47:53.188Z,12.00
2022-12-07T07:48:53.162Z,16.90
2022-12-07T07:49:53.182Z,14.50
2022-12-07T07:50:53.165Z,13.20
2022-12-07T07:51:53.111Z,12.40
2022-12-07T07:52:53.135Z,13.60
2022-12-07T07:53:53.093Z,12.60
2022-12-07T07:54:53.084Z,16.60
2022-12-07T07:55:53.068Z,12.60
2022-12-07T07:56:53.063Z,13.00
2022-12-07T07:57:55.039Z,16.10
2022-12-07T07:58:53.039Z,11.60
2022-12-07T07:59:53.025Z,13.20
2022-12-07T08:00:53.024Z,18.40
2022-12-07T08:01:53.087Z,15.00
2022-12-07T08:02:53.150Z,14.10
2022-12-07T08:03:53.001Z,13.00
2022-12-07T08:04:52.997Z,12.60
2022-12-07T08:05:52.959Z,18.00
2022-12-07T08:06:52.953Z,16.60
2022-12-07T08:07:53.037Z,13.60
2022-12-07T08:08:52.963Z,15.00
2022-12-07T08:09:52.918Z,16.60
2022-12-07T08:10:52.909Z,14.10
2022-12-07T08:11:52.893Z,16.20
2022-12-07T08:12:52.902Z,13.10
2022-12-07T08:13:52.875Z,18.20
2022-12-07T08:14:52.870Z,15.40
2022-12-07T08:15:52.907Z,15.90
2022-12-07T08:16:52.838Z,13.10
2022-12-07T08:17:52.862Z,14.40
2022-12-07T08:18:52.823Z,19.00
2022-12-07T08:19:52.817Z,19.20
2022-12-07T08:20:52.794Z,16.40
2022-12-07T08:21:52.788Z,18.40
2022-12-07T08:22:52.795Z,14.90
2022-12-07T08:23:52.768Z,16.30
2022-12-07T08:24:52.746Z,14.50
2022-12-07T08:25:52.741Z,16.80
2022-12-07T08:26:52.740Z,15.00
2022-12-07T08:27:52.747Z,18.20
2022-12-07T08:28:52.726Z,13.40
2022-12-07T08:29:52.703Z,15.00
2022-12-07T08:30:52.711Z,19.00
2022-12-07T08:31:52.677Z,15.40
2022-12-07T08:32:52.678Z,14.90
2022-12-07T08:33:52.652Z,15.30
2022-12-07T08:34:52.642Z,17.10
2022-12-07T08:35:52.630Z,18.50
2022-12-07T08:36:52.646Z,15.20
2022-12-07T08:37:52.645Z,14.10
2022-12-07T08:39:29.286Z,15.90
2022-12-07T08:39:52.600Z,14.70
2022-12-07T08:40:52.575Z,17.00
2022-12-07T08:41:52.613Z,14.20
2022-12-07T08:42:52.578Z,14.20
2022-12-07T08:43:52.546Z,13.50
2022-12-07T08:44:52.529Z,16.40
2022-12-07T08:45:52.537Z,15.20
2022-12-07T08:46:52.576Z,12.10
2022-12-07T08:47:52.529Z,16.90
2022-12-07T08:48:52.483Z,11.70
2022-12-07T08:49:52.477Z,14.40
2022-12-07T08:50:52.466Z,15.20
2022-12-07T08:51:52.452Z,14.60
2022-12-07T08:52:52.448Z,15.00
2022-12-07T08:53:52.459Z,11.80
2022-12-07T08:54:52.416Z,13.30
2022-12-07T08:55:52.411Z,12.80
2022-12-07T08:56:58.528Z,13.60
2022-12-07T08:57:52.420Z,11.80
2022-12-07T08:58:52.395Z,13.10
2022-12-07T08:59:52.364Z,12.50
2022-12-07T09:00:52.353Z,12.40
2022-12-07T09:01:52.376Z,13.80
2022-12-07T09:02:52.328Z,11.90
2022-12-07T09:03:52.351Z,14.90
2022-12-07T09:04:52.306Z,11.70
2022-12-07T09:05:52.479Z,13.40
2022-12-07T09:06:52.377Z,11.50
2022-12-07T09:07:52.328Z,11.20
2022-12-07T09:08:52.272Z,12.00
2022-12-07T09:09:52.271Z,15.20
2022-12-07T09:10:52.248Z,12.00
2022-12-07T09:11:52.239Z,14.70
2022-12-07T09:12:52.230Z,12.40
2022-12-07T09:13:52.207Z,13.40
2022-12-07T09:14:52.221Z,11.20
2022-12-07T09:15:52.309Z,11.30
2022-12-07T09:16:52.179Z,14.00
2022-12-07T09:17:52.161Z,13.40
2022-12-07T09:18:52.159Z,12.80
2022-12-07T09:19:52.141Z,10.70
2022-12-07T09:20:52.172Z,11.10
2022-12-07T09:21:52.117Z,11.40
2022-12-07T09:22:52.117Z,16.30
2022-12-07T09:23:52.096Z,10.50
2022-12-07T09:24:52.089Z,11.60
2022-12-07T09:25:52.076Z,12.30
2022-12-07T09:26:52.090Z,13.50
2022-12-07T09:27:52.050Z,14.30
2022-12-07T09:28:52.046Z,11.00
2022-12-07T09:29:52.034Z,13.80
2022-12-07T09:31:22.065Z,15.20
2022-12-07T09:31:52.148Z,12.00
2022-12-07T09:32:52.000Z,12.80
2022-12-07T09:33:52.058Z,12.70
2022-12-07T09:34:52.095Z,11.40
2022-12-07T09:35:51.965Z,12.70
2022-12-07T09:36:51.959Z,9.00
2022-12-07T09:37:51.965Z,11.20
2022-12-07T09:38:51.935Z,13.60
2022-12-07T09:39:51.918Z,12.80
2022-12-07T09:40:51.933Z,10.00
2022-12-07T09:41:51.898Z,15.50
2022-12-07T09:42:52.001Z,11.30
2022-12-07T09:43:51.874Z,11.10
2022-12-07T09:44:51.885Z,10.30
2022-12-07T09:45:51.849Z,10.20
2022-12-07T09:46:51.963Z,13.30
2022-12-07T09:47:51.851Z,12.00
2022-12-07T09:48:51.823Z,12.70
2022-12-07T09:49:51.822Z,11.60
2022-12-07T09:50:51.800Z,10.10
2022-12-07T09:51:51.794Z,9.70
2022-12-07T09:52:51.799Z,11.50
2022-12-07T09:53:51.762Z,9.80
2022-12-07T09:54:51.757Z,9.90
2022-12-07T09:55:51.744Z,11.70
2022-12-07T09:56:51.731Z,9.40
2022-12-07T09:57:51.739Z,11.70
2022-12-07T09:58:51.711Z,9.90
2022-12-07T09:59:51.694Z,13.60
2022-12-07T10:00:51.695Z,11.00
2022-12-07T10:01:51.735Z,10.00
2022-12-07T10:02:51.696Z,10.80
2022-12-07T10:03:51.653Z,10.50
2022-12-07T10:04:51.693Z,10.40
2022-12-07T10:05:51.628Z,9.50
2022-12-07T10:06:51.618Z,10.50
2022-12-07T10:07:51.768Z,9.60
2022-12-07T10:08:51.596Z,9.60
2022-12-07T10:09:51.590Z,12.70
2022-12-07T10:10:51.574Z,7.90
2022-12-07T10:11:51.564Z,9.80
2022-12-07T10:12:51.585Z,8.40
2022-12-07T10:13:51.545Z,8.20
2022-12-07T10:15:06.966Z,10.40
2022-12-07T10:15:51.602Z,8.00
2022-12-07T10:16:51.503Z,8.30
2022-12-07T10:17:51.524Z,8.00
2022-12-07T10:18:51.486Z,8.70
2022-12-07T10:19:51.487Z,8.90
2022-12-07T10:20:51.462Z,7.30
2022-12-07T10:21:51.457Z,10.10
2022-12-07T10:22:51.464Z,8.80
2022-12-07T10:23:51.435Z,9.40
2022-12-07T10:24:51.417Z,8.10
2022-12-07T10:25:51.412Z,7.60
2022-12-07T10:26:51.397Z,9.60
2022-12-07T10:27:51.413Z,6.90
2022-12-07T10:28:51.373Z,10.30
2022-12-07T10:29:51.367Z,13.50
2022-12-07T10:30:51.437Z,11.20
2022-12-07T10:31:51.404Z,10.30
2022-12-07T10:32:51.358Z,8.50
2022-12-07T10:33:51.321Z,10.50
2022-12-07T10:34:52.498Z,12.80
2022-12-07T10:35:51.302Z,10.20
2022-12-07T10:36:51.286Z,11.40
2022-12-07T10:37:51.303Z,12.30
2022-12-07T10:38:51.264Z,6.40
2022-12-07T10:39:51.256Z,8.00
2022-12-07T10:40:51.243Z,11.00
2022-12-07T10:41:51.234Z,11.50
2022-12-07T10:42:51.251Z,9.30
2022-12-07T10:43:51.209Z,9.80
2022-12-07T10:44:51.260Z,10.50
2022-12-07T10:46:03.406Z,7.20
2022-12-07T10:46:51.245Z,8.20
2022-12-07T10:47:51.189Z,7.30
2022-12-07T10:48:51.147Z,8.70
2022-12-07T10:49:51.149Z,11.20
2022-12-07T10:50:51.127Z,11.60
2022-12-07T10:51:51.171Z,7.40
2022-12-07T10:52:51.123Z,12.40
2022-12-07T10:53:51.098Z,8.30
2022-12-07T10:54:51.087Z,10.20
2022-12-07T10:55:51.076Z,11.70
2022-12-07T10:56:52.650Z,9.90
2022-12-07T10:57:51.081Z,11.00
2022-12-07T10:58:51.036Z,10.10
2022-12-07T10:59:51.034Z,10.60
2022-12-07T11:00:51.881Z,8.90
2022-12-07T11:01:51.113Z,10.90
2022-12-07T11:02:51.017Z,9.40
2022-12-07T11:03:50.989Z,9.00
2022-12-07T11:04:50.971Z,11.40
2022-12-07T11:05:50.967Z,10.70
2022-12-07T11:06:50.954Z,9.60
2022-12-07T11:07:56.660Z,9.20
2022-12-07T11:08:50.959Z,5.60
2022-12-07T11:10:50.920Z,10.10
2022-12-07T11:11:50.911Z,9.70
2022-12-07T11:12:50.924Z,7.90
2022-12-07T11:13:50.878Z,9.10
2022-12-07T11:14:50.879Z,9.40
2022-12-07T11:15:50.918Z,10.20
2022-12-07T11:16:50.935Z,11.00
2022-12-07T11:17:50.852Z,12.30
2022-12-07T11:18:50.823Z,10.20
2022-12-07T11:19:50.809Z,9.80
2022-12-07T11:20:50.801Z,8.50
2022-12-07T11:21:50.787Z,8.30
2022-12-07T11:22:50.806Z,7.50
2022-12-07T11:23:50.783Z,7.90
2022-12-07T11:24:50.762Z,10.30
2022-12-07T11:25:50.771Z,7.70
2022-12-07T11:26:50.735Z,10.30
2022-12-07T11:27:50.747Z,9.90
2022-12-07T11:28:50.714Z,8.70
2022-12-07T11:29:50.696Z,10.60
2022-12-07T11:30:50.708Z,10.20
2022-12-07T11:31:50.821Z,11.20
2022-12-07T11:32:50.720Z,10.80
2022-12-07T11:33:50.654Z,9.20
2022-12-07T11:34:50.647Z,10.60
2022-12-07T11:35:50.632Z,11.90
2022-12-07T11:36:50.622Z,10.20
2022-12-07T11:37:50.826Z,8.30
2022-12-07T11:38:50.603Z,9.80
2022-12-07T11:39:50.586Z,7.70
2022-12-07T11:40:50.581Z,11.80
2022-12-07T11:41:50.562Z,9.20
2022-12-07T11:42:50.599Z,10.50
2022-12-07T11:43:50.572Z,8.30
2022-12-07T11:44:50.589Z,7.60
2022-12-07T11:45:50.575Z,8.60
2022-12-07T11:46:50.577Z,5.30
2022-12-07T11:47:50.508Z,8.30
2022-12-07T11:48:50.485Z,10.00
2022-12-07T11:49:50.495Z,8.70
2022-12-07T11:50:50.462Z,8.10
2022-12-07T11:51:50.455Z,11.10
2022-12-07T11:52:50.443Z,7.20
2022-12-07T11:53:50.435Z,9.10
2022-12-07T11:54:50.437Z,12.10
2022-12-07T11:55:50.412Z,7.70
2022-12-07T11:56:50.416Z,9.30
2022-12-07T11:57:50.390Z,8.20
2022-12-07T11:58:50.383Z,8.00
2022-12-07T11:59:50.385Z,7.80
2022-12-07T12:00:50.358Z,9.80
2022-12-07T12:01:50.386Z,7.10
2022-12-07T12:02:50.356Z,8.00
2022-12-07T12:03:53.223Z,10.20
2022-12-07T12:04:50.329Z,7.80
2022-12-07T12:05:50.300Z,8.40
2022-12-07T12:06:50.479Z,11.70
2022-12-07T12:09:53.501Z,9.50
2022-12-07T12:10:50.244Z,9.90
2022-12-07T12:11:50.241Z,8.60
2022-12-07T12:14:50.211Z,12.70
2022-12-07T12:15:50.207Z,10.40
2022-12-07T12:16:50.217Z,9.00
2022-12-07T12:17:50.167Z,11.30
2022-12-07T12:18:50.165Z,8.30
2022-12-07T12:19:50.138Z,7.80
2022-12-07T12:20:50.133Z,11.10
2022-12-07T12:21:52.090Z,10.50
2022-12-07T12:22:50.124Z,8.80
2022-12-07T12:23:50.108Z,8.30
2022-12-07T12:24:50.086Z,10.90
2022-12-07T12:25:50.120Z,9.40
2022-12-07T12:26:50.086Z,10.90
2022-12-07T12:27:50.052Z,9.20
2022-12-07T12:28:50.471Z,8.80
2022-12-07T12:29:50.032Z,8.80
2022-12-07T12:30:50.022Z,7.20
2022-12-07T12:31:50.090Z,13.50
2022-12-07T12:32:49.996Z,10.20
2022-12-07T12:33:49.988Z,8.00
2022-12-07T12:34:50.672Z,8.70
2022-12-07T12:35:49.960Z,7.90
2022-12-07T12:36:50.075Z,8.00
2022-12-07T12:37:49.933Z,9.40
2022-12-07T12:38:49.933Z,12.60
2022-12-07T12:39:49.920Z,8.80
2022-12-07T12:40:51.300Z,10.80
2022-12-07T12:41:49.891Z,10.50
2022-12-07T12:42:49.914Z,8.60
2022-12-07T12:43:49.872Z,6.70
2022-12-07T12:44:49.867Z,12.00
2022-12-07T12:45:49.895Z,9.80
2022-12-07T12:46:50.578Z,8.90
2022-12-07T12:47:49.854Z,7.70
2022-12-07T12:48:49.827Z,8.60
2022-12-07T12:49:49.804Z,8.90
2022-12-07T12:50:49.799Z,8.00
2022-12-07T12:51:49.784Z,9.10
2022-12-07T12:52:50.811Z,8.10
2022-12-07T12:53:49.779Z,8.10
2022-12-07T12:54:49.754Z,7.80
2022-12-07T12:55:49.735Z,11.70
2022-12-07T12:56:49.733Z,11.60
2022-12-07T12:57:55.887Z,13.10
2022-12-07T12:58:49.752Z,11.60
2022-12-07T12:59:49.694Z,8.20
2022-12-07T13:00:49.730Z,11.70
2022-12-07T13:01:49.782Z,12.90
2022-12-07T13:02:49.718Z,9.30